createdAt,value
2022-09-14T00:00:36.912Z,11.56
2022-09-14T00:03:11.535Z,11.52
2022-09-14T00:05:40.129Z,11.51
2022-09-14T00:08:08.916Z,11.54
2022-09-14T00:10:46.430Z,11.59
2022-09-14T00:13:17.657Z,11.57
2022-09-14T00:15:49.104Z,11.58
2022-09-14T00:19:27.730Z,11.64
2022-09-14T00:21:58.872Z,11.56
2022-09-14T00:24:35.443Z,11.50
2022-09-14T00:27:03.825Z,11.52
2022-09-14T00:29:33.736Z,11.58
2022-09-14T00:32:02.287Z,11.61
2022-09-14T00:34:38.787Z,11.56
2022-09-14T00:37:09.317Z,11.54
2022-09-14T00:39:45.348Z,11.53
2022-09-14T00:42:39.555Z,11.51
2022-09-14T00:45:28.549Z,11.55
2022-09-14T00:47:59.047Z,11.47
2022-09-14T00:50:27.639Z,11.46
2022-09-14T00:52:57.240Z,11.43
2022-09-14T00:55:26.129Z,11.46
2022-09-14T00:57:54.918Z,11.48
2022-09-14T01:00:32.617Z,11.52
2022-09-14T01:03:06.010Z,11.50
2022-09-14T01:06:00.602Z,11.55
2022-09-14T01:08:54.135Z,11.54
2022-09-14T01:11:49.544Z,11.59
2022-09-14T01:14:35.677Z,11.60
2022-09-14T01:17:29.348Z,11.55
2022-09-14T01:23:33.188Z,11.55
2022-09-14T01:26:20.711Z,11.66
2022-09-14T01:29:23.493Z,11.70
2022-09-14T01:32:19.927Z,11.69
2022-09-14T01:35:39.505Z,11.72
2022-09-14T01:38:10.853Z,11.80
2022-09-14T01:40:41.690Z,11.69
2022-09-14T01:43:43.965Z,11.72
2022-09-14T01:46:26.779Z,11.61
2022-09-14T01:49:08.273Z,11.60
2022-09-14T01:52:09.413Z,11.65
2022-09-14T01:55:01.652Z,11.63
2022-09-14T01:57:41.608Z,11.57
2022-09-14T02:00:16.662Z,11.53
2022-09-14T02:03:00.483Z,11.55
2022-09-14T02:05:37.252Z,11.55
2022-09-14T02:08:09.221Z,11.51
2022-09-14T02:10:39.035Z,11.55
2022-09-14T02:13:33.094Z,11.66
2022-09-14T02:16:09.315Z,11.63
2022-09-14T02:18:39.701Z,11.61
2022-09-14T02:21:14.726Z,11.65
2022-09-14T02:23:43.209Z,11.64
2022-09-14T02:26:13.941Z,11.59
2022-09-14T02:28:42.423Z,11.55
2022-09-14T02:31:27.142Z,11.51
2022-09-14T02:34:45.638Z,11.63
2022-09-14T02:37:39.103Z,11.62
2022-09-14T02:40:29.034Z,11.56
2022-09-14T02:43:34.327Z,11.63
2022-09-14T02:46:12.600Z,11.59
2022-09-14T02:49:08.063Z,11.61
2022-09-14T02:55:23.458Z,11.52
2022-09-14T02:58:02.997Z,11.56
2022-09-14T03:00:49.244Z,11.53
2022-09-14T03:04:05.801Z,11.64
2022-09-14T03:06:34.085Z,11.56
2022-09-14T03:09:02.353Z,11.59
2022-09-14T03:11:30.534Z,11.58
2022-09-14T03:14:07.098Z,11.55
2022-09-14T03:16:35.441Z,11.49
2022-09-14T03:19:03.548Z,11.43
2022-09-14T03:21:44.521Z,11.48
2022-09-14T03:24:12.798Z,11.47
2022-09-14T03:26:41.075Z,11.40
2022-09-14T03:29:12.728Z,11.44
2022-09-14T03:31:41.074Z,11.43
2022-09-14T03:34:11.119Z,11.42
2022-09-14T03:36:48.410Z,11.42
2022-09-14T03:39:16.686Z,11.45
2022-09-14T03:41:44.963Z,11.44
2022-09-14T03:44:23.852Z,11.45
2022-09-14T03:46:54.297Z,11.41
2022-09-14T03:49:27.200Z,11.42
2022-09-14T03:51:59.938Z,11.39
2022-09-14T03:54:31.228Z,11.40
2022-09-14T03:56:59.811Z,11.38
2022-09-14T03:59:28.189Z,11.37
2022-09-14T04:01:56.443Z,11.34
2022-09-14T04:04:24.843Z,11.42
2022-09-14T04:06:53.221Z,11.44
2022-09-14T04:09:21.814Z,11.46
2022-09-14T04:12:05.134Z,11.49
2022-09-14T04:14:33.410Z,11.50
2022-09-14T04:17:01.686Z,11.52
2022-09-14T04:19:34.887Z,11.55
2022-09-14T04:22:03.768Z,11.53
2022-09-14T04:24:31.942Z,11.56
2022-09-14T04:27:00.219Z,11.55
2022-09-14T04:29:30.790Z,11.59
2022-09-14T04:31:59.124Z,11.60
2022-09-14T04:34:27.306Z,11.64
2022-09-14T04:36:58.552Z,11.70
2022-09-14T04:39:29.995Z,11.76
2022-09-14T04:41:58.377Z,11.82
2022-09-14T04:44:26.751Z,11.89
2022-09-14T04:46:55.407Z,11.94
2022-09-14T04:49:23.715Z,11.98
2022-09-14T04:51:51.994Z,12.06
2022-09-14T04:54:20.267Z,12.08
2022-09-14T04:56:48.436Z,12.07
2022-09-14T04:59:16.714Z,12.05
2022-09-14T05:01:47.919Z,12.09
2022-09-14T05:04:17.220Z,12.13
2022-09-14T05:06:46.034Z,12.21
2022-09-14T05:09:20.568Z,12.24
2022-09-14T05:11:50.792Z,12.25
2022-09-14T05:14:19.069Z,12.27
2022-09-14T05:16:48.377Z,12.25
2022-09-14T05:19:20.946Z,12.21
2022-09-14T05:21:49.296Z,12.24
2022-09-14T05:24:19.037Z,12.17
2022-09-14T05:26:47.408Z,12.20
2022-09-14T05:29:26.113Z,12.24
2022-09-14T05:31:57.481Z,12.19
2022-09-14T05:34:25.655Z,12.15
2022-09-14T05:36:56.083Z,12.19
2022-09-14T05:39:26.921Z,12.17
2022-09-14T05:41:57.959Z,12.20
2022-09-14T05:44:26.335Z,12.21
2022-09-14T05:46:57.474Z,12.24
2022-09-14T05:49:25.859Z,12.23
2022-09-14T05:51:54.035Z,12.29
2022-09-14T05:54:23.850Z,12.28
2022-09-14T05:56:52.120Z,12.25
2022-09-14T05:59:20.293Z,12.27
2022-09-14T06:01:48.452Z,12.28
2022-09-14T06:04:20.840Z,12.26
2022-09-14T06:07:14.559Z,12.24
2022-09-14T06:09:38.088Z,12.24
2022-09-14T06:12:27.495Z,12.32
2022-09-14T06:14:59.106Z,12.31
2022-09-14T06:17:30.153Z,12.34
2022-09-14T06:20:04.465Z,12.30
2022-09-14T06:22:33.351Z,12.28
2022-09-14T06:25:02.242Z,12.22
2022-09-14T06:27:34.305Z,12.25
2022-09-14T06:30:02.790Z,12.24
2022-09-14T06:32:34.965Z,12.31
2022-09-14T06:35:12.682Z,12.33
2022-09-14T06:37:40.928Z,12.34
2022-09-14T06:40:09.595Z,12.38
2022-09-14T06:42:38.709Z,12.44
2022-09-14T06:45:07.396Z,12.49
2022-09-14T06:47:35.773Z,12.57
2022-09-14T06:50:07.122Z,12.70
2022-09-14T06:52:37.447Z,12.79
2022-09-14T06:55:08.898Z,12.85
2022-09-14T06:57:42.781Z,12.89
2022-09-14T07:00:11.701Z,12.93
2022-09-14T07:02:40.012Z,13.00
2022-09-14T07:05:08.760Z,12.93
2022-09-14T07:07:36.830Z,12.90
2022-09-14T07:10:05.515Z,12.85
2022-09-14T07:12:33.996Z,12.83
2022-09-14T07:15:02.374Z,12.82
2022-09-14T07:17:31.476Z,12.79
2022-09-14T07:19:59.644Z,12.76
2022-09-14T07:22:30.283Z,12.73
2022-09-14T07:25:24.869Z,12.76
2022-09-14T07:27:52.633Z,12.55
2022-09-14T07:30:23.367Z,12.55
2022-09-14T07:32:53.486Z,12.47
2022-09-14T07:35:21.966Z,12.42
2022-09-14T07:37:54.439Z,12.40
2022-09-14T07:40:26.139Z,12.37
2022-09-14T07:42:57.556Z,12.34
2022-09-14T07:45:26.131Z,12.42
2022-09-14T07:47:54.509Z,12.47
2022-09-14T07:50:22.792Z,12.57
2022-09-14T07:52:52.497Z,12.60
2022-09-14T07:55:21.385Z,12.64
2022-09-14T07:57:56.397Z,12.67
2022-09-14T08:00:26.026Z,12.71
2022-09-14T08:02:55.648Z,12.83
2022-09-14T08:05:24.630Z,12.99
2022-09-14T08:07:56.998Z,13.08
2022-09-14T08:10:26.503Z,13.31
2022-09-14T08:12:56.493Z,13.38
2022-09-14T08:15:28.453Z,13.42
2022-09-14T08:17:59.836Z,13.45
2022-09-14T08:20:27.581Z,13.57
2022-09-14T08:22:55.461Z,13.78
2022-09-14T08:25:23.735Z,13.91
2022-09-14T08:27:51.910Z,14.14
2022-09-14T08:30:20.083Z,14.45
2022-09-14T08:32:48.256Z,14.65
2022-09-14T08:35:16.334Z,14.68
2022-09-14T08:37:44.810Z,14.67
2022-09-14T08:40:16.444Z,14.59
2022-09-14T08:42:45.554Z,14.56
2022-09-14T08:45:17.318Z,14.46
2022-09-14T08:47:45.798Z,14.44
2022-09-14T08:50:19.603Z,14.35
2022-09-14T08:52:50.209Z,14.29
2022-09-14T08:55:17.999Z,14.29
2022-09-14T08:57:56.210Z,14.36
2022-09-14T09:00:30.069Z,14.31
2022-09-14T09:03:13.138Z,14.33
2022-09-14T09:05:53.088Z,14.22
2022-09-14T09:08:45.939Z,14.10
2022-09-14T09:11:20.975Z,14.00
2022-09-14T09:13:52.670Z,13.96
2022-09-14T09:16:25.228Z,13.90
2022-09-14T09:19:12.325Z,13.91
2022-09-14T09:21:46.951Z,13.76
2022-09-14T09:24:39.084Z,13.84
2022-09-14T09:27:12.488Z,13.72
2022-09-14T09:29:40.458Z,13.73
2022-09-14T09:32:23.985Z,13.72
2022-09-14T09:35:18.782Z,13.71
2022-09-14T09:38:16.449Z,13.83
2022-09-14T09:40:51.070Z,13.96
2022-09-14T09:43:45.257Z,14.09
2022-09-14T09:46:12.887Z,14.11
2022-09-14T09:48:47.337Z,13.96
2022-09-14T09:51:26.773Z,13.82
2022-09-14T09:54:12.457Z,13.62
2022-09-14T09:57:06.949Z,13.60
2022-09-14T09:59:41.487Z,13.49
2022-09-14T10:02:29.890Z,13.58
2022-09-14T10:05:13.453Z,13.50
2022-09-14T10:07:51.050Z,13.48
2022-09-14T10:10:46.357Z,13.40
2022-09-14T10:13:38.612Z,13.44
2022-09-14T10:16:19.021Z,13.39
2022-09-14T10:18:54.132Z,13.34
2022-09-14T10:21:26.054Z,13.38
2022-09-14T10:24:18.190Z,13.50
2022-09-14T10:26:46.364Z,13.51
2022-09-14T10:29:41.776Z,13.65
2022-09-14T10:32:23.877Z,13.74
2022-09-14T10:34:52.253Z,13.81
2022-09-14T10:37:37.835Z,14.00
2022-09-14T10:40:31.650Z,14.18
2022-09-14T10:43:34.087Z,14.32
2022-09-14T10:46:08.148Z,14.26
2022-09-14T10:48:53.679Z,14.20
2022-09-14T10:51:49.911Z,14.27
2022-09-14T10:54:37.236Z,14.26
2022-09-14T10:57:49.854Z,14.25
2022-09-14T11:00:21.506Z,14.24
2022-09-14T11:03:13.824Z,14.28
2022-09-14T11:06:28.202Z,14.35
2022-09-14T11:09:16.854Z,14.22
2022-09-14T11:12:12.716Z,14.21
2022-09-14T11:15:19.463Z,14.23
2022-09-14T11:18:08.825Z,14.32
2022-09-14T11:21:18.778Z,14.46
2022-09-14T11:23:56.578Z,14.55
2022-09-14T11:26:42.932Z,14.69
2022-09-14T11:29:29.899Z,14.71
2022-09-14T11:32:21.797Z,14.69
2022-09-14T11:35:15.703Z,14.62
2022-09-14T11:37:49.585Z,14.41
2022-09-14T11:40:25.112Z,14.38
2022-09-14T11:43:16.880Z,14.37
2022-09-14T11:45:58.517Z,14.40
2022-09-14T11:48:48.992Z,14.45
2022-09-14T11:52:18.373Z,14.63
2022-09-14T11:54:48.185Z,14.52
2022-09-14T11:57:21.580Z,14.46
2022-09-14T12:00:01.223Z,14.43
2022-09-14T12:02:29.329Z,14.40
2022-09-14T12:05:10.701Z,14.47
2022-09-14T12:07:45.817Z,14.51
2022-09-14T12:10:19.522Z,14.64
2022-09-14T12:12:55.373Z,14.71
2022-09-14T12:15:29.107Z,14.71
2022-09-14T12:18:09.433Z,14.67
2022-09-14T12:20:45.361Z,14.71
2022-09-14T12:23:42.285Z,14.85
2022-09-14T12:26:11.171Z,14.78
2022-09-14T12:28:48.665Z,14.88
2022-09-14T12:31:45.877Z,15.00
2022-09-14T12:34:46.921Z,15.08
2022-09-14T12:37:37.695Z,15.10
2022-09-14T12:40:34.556Z,15.02
2022-09-14T12:43:42.025Z,15.08
2022-09-14T12:46:22.722Z,15.02
2022-09-14T12:48:53.923Z,14.93
2022-09-14T12:51:24.608Z,14.92
2022-09-14T12:53:59.235Z,14.88
2022-09-14T12:56:55.157Z,14.89
2022-09-14T12:59:52.924Z,15.05
2022-09-14T13:02:47.747Z,15.07
2022-09-14T13:05:25.532Z,15.10
2022-09-14T13:07:55.540Z,15.13
2022-09-14T13:10:38.092Z,15.09
2022-09-14T13:13:14.730Z,15.10
2022-09-14T13:15:52.892Z,15.08
2022-09-14T13:18:21.209Z,15.05
2022-09-14T13:20:57.368Z,14.95
2022-09-14T13:23:44.281Z,14.94
2022-09-14T13:26:30.171Z,14.80
2022-09-14T13:29:00.495Z,14.73
2022-09-14T13:31:35.324Z,14.68
2022-09-14T13:34:05.764Z,14.59
2022-09-14T13:36:45.201Z,14.62
2022-09-14T13:39:26.578Z,14.64
2022-09-14T13:41:56.594Z,14.54
2022-09-14T13:44:47.086Z,14.54
2022-09-14T13:47:20.792Z,14.40
2022-09-14T13:49:51.319Z,14.34
2022-09-14T13:52:22.462Z,14.35
2022-09-14T13:54:53.404Z,14.30
2022-09-14T13:57:25.087Z,14.32
2022-09-14T14:00:09.722Z,14.39
2022-09-14T14:02:48.233Z,14.41
2022-09-14T14:05:30.128Z,14.44
2022-09-14T14:08:01.170Z,14.42
2022-09-14T14:10:34.060Z,14.45
2022-09-14T14:13:03.866Z,14.42
2022-09-14T14:15:39.822Z,14.40
2022-09-14T14:18:35.725Z,14.45
2022-09-14T14:21:25.133Z,14.41
2022-09-14T14:24:16.328Z,14.38
2022-09-14T14:27:04.467Z,14.40
2022-09-14T14:29:33.155Z,14.33
2022-09-14T14:32:01.333Z,14.34
2022-09-14T14:34:30.424Z,14.29
2022-09-14T14:36:58.599Z,14.33
2022-09-14T14:39:28.934Z,14.31
2022-09-14T14:41:57.814Z,14.34
2022-09-14T14:44:50.870Z,14.40
2022-09-14T14:47:19.248Z,14.31
2022-09-14T14:49:47.630Z,14.29
2022-09-14T14:52:16.005Z,14.30
2022-09-14T14:54:47.260Z,14.25
2022-09-14T14:57:18.190Z,14.25
2022-09-14T14:59:53.121Z,14.24
2022-09-14T15:02:21.502Z,14.25
2022-09-14T15:04:49.777Z,14.24
2022-09-14T15:07:18.053Z,14.17
2022-09-14T15:09:46.337Z,14.22
2022-09-14T15:12:14.607Z,14.22
2022-09-14T15:14:43.255Z,14.22
2022-09-14T15:17:11.669Z,14.22
2022-09-14T15:19:46.395Z,14.26
2022-09-14T15:22:15.091Z,14.22
2022-09-14T15:24:49.195Z,14.19
2022-09-14T15:27:20.851Z,14.19
2022-09-14T15:29:49.435Z,14.20
2022-09-14T15:32:18.127Z,14.21
2022-09-14T15:34:47.421Z,14.22
2022-09-14T15:37:15.589Z,14.21
2022-09-14T15:39:46.106Z,14.21
2022-09-14T15:42:19.005Z,14.22
2022-09-14T15:44:47.590Z,14.23
2022-09-14T15:47:16.429Z,14.22
2022-09-14T15:49:44.755Z,14.22
2022-09-14T15:52:13.123Z,14.21
2022-09-14T15:54:41.000Z,14.18
2022-09-14T15:57:14.908Z,14.17
2022-09-14T15:59:43.184Z,14.15
2022-09-14T16:02:12.670Z,14.13
2022-09-14T16:04:41.068Z,14.07
2022-09-14T16:07:12.314Z,14.10
2022-09-14T16:09:41.716Z,14.09
2022-09-14T16:12:12.450Z,14.05
2022-09-14T16:14:40.931Z,14.09
2022-09-14T16:17:11.464Z,14.10
2022-09-14T16:20:06.059Z,14.10
2022-09-14T16:22:36.992Z,14.09
2022-09-14T16:25:10.489Z,14.11
2022-09-14T16:27:41.122Z,14.07
2022-09-14T16:30:13.152Z,14.06
2022-09-14T16:32:41.258Z,14.03
2022-09-14T16:35:10.761Z,14.02
2022-09-14T16:37:39.038Z,14.01
2022-09-14T16:40:07.785Z,14.00
2022-09-14T16:42:38.775Z,14.02
2022-09-14T16:45:08.475Z,14.00
2022-09-14T16:47:37.773Z,14.00
2022-09-14T16:50:08.406Z,14.00
2022-09-14T16:52:36.578Z,13.99
2022-09-14T16:55:05.367Z,13.99
2022-09-14T16:57:42.859Z,13.96
2022-09-14T17:00:11.410Z,13.90
2022-09-14T17:02:39.692Z,13.95
2022-09-14T17:05:08.333Z,13.94
2022-09-14T17:07:36.475Z,13.94
2022-09-14T17:10:05.161Z,13.93
2022-09-14T17:12:33.334Z,13.93
2022-09-14T17:15:01.225Z,13.88
2022-09-14T17:17:29.067Z,13.93
2022-09-14T17:19:57.204Z,13.95
2022-09-14T17:22:25.505Z,13.96
2022-09-14T17:24:53.989Z,13.95
2022-09-14T17:27:22.355Z,13.84
2022-09-14T17:29:51.184Z,13.81
2022-09-14T17:32:19.338Z,13.78
2022-09-14T17:34:52.633Z,13.78
2022-09-14T17:37:23.469Z,13.74
2022-09-14T17:39:55.627Z,13.74
2022-09-14T17:42:23.912Z,13.71
2022-09-14T17:44:52.187Z,13.68
2022-09-14T17:47:20.328Z,13.67
2022-09-14T17:49:48.534Z,13.66
2022-09-14T17:52:16.710Z,13.66
2022-09-14T17:54:44.652Z,13.66
2022-09-14T17:57:12.956Z,13.69
2022-09-14T17:59:41.159Z,13.69
2022-09-14T18:02:10.017Z,13.73
2022-09-14T18:04:43.295Z,13.74
2022-09-14T18:07:15.274Z,13.74
2022-09-14T18:09:43.697Z,13.68
2022-09-14T18:12:13.567Z,13.68
2022-09-14T18:14:41.638Z,13.66
2022-09-14T18:17:09.813Z,13.63
2022-09-14T18:19:37.783Z,13.63
2022-09-14T18:22:06.159Z,13.62
2022-09-14T18:24:34.955Z,13.61
2022-09-14T18:27:03.114Z,13.63
2022-09-14T18:29:31.815Z,13.66
2022-09-14T18:32:00.495Z,13.62
2022-09-14T18:34:29.385Z,13.60
2022-09-14T18:36:57.659Z,13.59
2022-09-14T18:39:25.935Z,13.58
2022-09-14T18:41:54.620Z,13.57
2022-09-14T18:44:23.920Z,13.54
2022-09-14T18:46:52.881Z,13.51
2022-09-14T18:49:23.445Z,13.51
2022-09-14T18:51:51.821Z,13.48
2022-09-14T18:54:22.269Z,13.49
2022-09-14T18:56:55.235Z,13.46
2022-09-14T18:59:23.713Z,13.46
2022-09-14T19:01:52.074Z,13.44
2022-09-14T19:04:20.266Z,13.41
2022-09-14T19:06:48.646Z,13.41
2022-09-14T19:09:16.921Z,13.41
2022-09-14T19:11:45.197Z,13.39
2022-09-14T19:14:14.089Z,13.38
2022-09-14T19:16:42.978Z,13.39
2022-09-14T19:19:13.711Z,13.37
2022-09-14T19:21:42.507Z,13.38
2022-09-14T19:24:13.551Z,13.36
2022-09-14T19:26:51.853Z,13.33
2022-09-14T19:29:24.382Z,13.33
2022-09-14T19:31:53.940Z,13.28
2022-09-14T19:34:25.180Z,13.25
2022-09-14T19:36:54.276Z,13.25
2022-09-14T19:39:24.087Z,13.28
2022-09-14T19:41:55.435Z,13.27
2022-09-14T19:44:26.373Z,13.27
2022-09-14T19:46:54.854Z,13.28
2022-09-14T19:49:25.799Z,13.30
2022-09-14T19:51:54.069Z,13.30
2022-09-14T19:54:22.355Z,13.32
2022-09-14T19:56:50.827Z,13.33
2022-09-14T19:59:19.109Z,13.33
2022-09-14T20:01:47.696Z,13.35
2022-09-14T20:04:18.725Z,13.36
2022-09-14T20:06:48.034Z,13.33
2022-09-14T20:09:22.140Z,13.38
2022-09-14T20:11:52.775Z,13.36
2022-09-14T20:14:24.116Z,13.35
2022-09-14T20:16:57.107Z,13.36
2022-09-14T20:19:29.583Z,13.35
2022-09-14T20:21:58.163Z,13.35
2022-09-14T20:24:28.691Z,13.33
2022-09-14T20:27:00.648Z,13.33
2022-09-14T20:29:31.391Z,13.34
2022-09-14T20:32:00.104Z,13.32
2022-09-14T20:34:28.963Z,13.35
2022-09-14T20:36:57.341Z,13.33
2022-09-14T20:39:25.516Z,13.33
2022-09-14T20:41:53.791Z,13.33
2022-09-14T20:44:24.833Z,13.33
2022-09-14T20:46:53.108Z,13.33
2022-09-14T20:49:23.434Z,13.33
2022-09-14T20:51:56.833Z,13.31
2022-09-14T20:54:26.232Z,13.27
2022-09-14T20:56:54.307Z,13.29
2022-09-14T20:59:22.680Z,13.29
2022-09-14T21:01:53.028Z,13.24
2022-09-14T21:04:23.534Z,13.27
2022-09-14T21:06:55.908Z,13.17
2022-09-14T21:09:26.026Z,13.25
2022-09-14T21:11:54.508Z,13.25
2022-09-14T21:14:23.601Z,13.26
2022-09-14T21:16:55.575Z,13.18
2022-09-14T21:19:27.634Z,13.26
2022-09-14T21:21:56.561Z,13.28
2022-09-14T21:24:26.331Z,13.20
2022-09-14T21:26:57.066Z,13.29
2022-09-14T21:29:25.240Z,13.25
2022-09-14T21:31:53.514Z,13.17
2022-09-14T21:34:24.463Z,13.23
2022-09-14T21:36:53.139Z,13.21
2022-09-14T21:39:23.895Z,13.20
2022-09-14T21:41:59.051Z,13.18
2022-09-14T21:44:32.470Z,13.16
2022-09-14T21:47:02.017Z,13.17
2022-09-14T21:49:30.086Z,13.17
2022-09-14T21:51:58.361Z,13.19
2022-09-14T21:54:26.949Z,13.15
2022-09-14T21:56:55.426Z,13.17
2022-09-14T21:59:24.323Z,13.15
2022-09-14T22:01:52.954Z,13.16
2022-09-14T22:04:23.640Z,13.16
2022-09-14T22:06:53.417Z,13.16
2022-09-14T22:09:23.664Z,13.13
2022-09-14T22:11:51.943Z,13.16
2022-09-14T22:14:24.720Z,13.16
2022-09-14T22:16:53.305Z,13.09
2022-09-14T22:19:26.062Z,13.14
2022-09-14T22:21:54.882Z,13.12
2022-09-14T22:24:36.385Z,13.15
2022-09-14T22:27:08.530Z,13.13
2022-09-14T22:29:38.344Z,13.07
2022-09-14T22:32:11.430Z,13.09
2022-09-14T22:34:41.036Z,13.02
2022-09-14T22:37:09.824Z,13.03
2022-09-14T22:39:37.999Z,13.09
2022-09-14T22:42:06.786Z,13.11
2022-09-14T22:44:35.267Z,13.11
2022-09-14T22:47:03.441Z,13.12
2022-09-14T22:49:31.820Z,13.14
2022-09-14T22:52:02.869Z,13.17
2022-09-14T22:54:34.312Z,13.18
2022-09-14T22:57:02.588Z,13.17
2022-09-14T22:59:30.865Z,13.17
2022-09-14T23:01:59.037Z,13.12
2022-09-14T23:04:27.621Z,13.16
2022-09-14T23:06:55.794Z,13.14
2022-09-14T23:09:23.967Z,13.16
2022-09-14T23:11:52.448Z,13.16
2022-09-14T23:14:20.828Z,13.17
2022-09-14T23:16:49.047Z,13.14
2022-09-14T23:19:18.915Z,13.17
2022-09-14T23:21:47.706Z,13.18
2022-09-14T23:24:16.492Z,13.18
2022-09-14T23:26:45.180Z,13.17
2022-09-14T23:29:16.217Z,13.16
2022-09-14T23:31:45.109Z,13.13
2022-09-14T23:34:13.690Z,13.12
2022-09-14T23:36:41.979Z,13.11
2022-09-14T23:39:10.552Z,13.06
2022-09-14T23:41:40.056Z,13.09
2022-09-14T23:44:10.174Z,13.11
2022-09-14T23:46:38.760Z,13.12
2022-09-14T23:49:07.034Z,13.11
2022-09-14T23:51:35.208Z,13.13
2022-09-14T23:54:03.586Z,13.14
2022-09-14T23:56:32.785Z,13.12
2022-09-14T23:59:01.370Z,13.13
